sensor_id;sensor_type;location;lat;lon;timestamp;pressure;altitude;pressure_sealevel;temperature;humidity
65880;BME280;52661;51.364;6.054;2023-07-16T00:02:23;100580.38;;;19.13;100.00
65880;BME280;52661;51.364;6.054;2023-07-16T00:04:48;100573.25;;;19.25;100.00
65880;BME280;52661;51.364;6.054;2023-07-16T00:07:13;100554.72;;;19.16;100.00
65880;BME280;52661;51.364;6.054;2023-07-16T00:09:39;100554.22;;;19.09;100.00
65880;BME280;52661;51.364;6.054;2023-07-16T00:12:04;100555.56;;;19.04;100.00
65880;BME280;52661;51.364;6.054;2023-07-16T00:14:30;100555.44;;;19.08;100.00
65880;BME280;52661;51.364;6.054;2023-07-16T00:16:55;100565.09;;;19.12;100.00
65880;BME280;52661;51.364;6.054;2023-07-16T00:19:21;100560.94;;;19.08;100.00
65880;BME280;52661;51.364;6.054;2023-07-16T00:21:46;100562.22;;;18.94;100.00
65880;BME280;52661;51.364;6.054;2023-07-16T00:24:11;100570.28;;;18.89;100.00
65880;BME280;52661;51.364;6.054;2023-07-16T00:26:37;100565.09;;;18.91;100.00
65880;BME280;52661;51.364;6.054;2023-07-16T00:29:02;100569.28;;;18.95;100.00
65880;BME280;52661;51.364;6.054;2023-07-16T00:31:28;100568.41;;;19.07;100.00
65880;BME280;52661;51.364;6.054;2023-07-16T00:33:53;100568.09;;;19.05;100.00
65880;BME280;52661;51.364;6.054;2023-07-16T00:36:18;100560.34;;;19.13;100.00
65880;BME280;52661;51.364;6.054;2023-07-16T00:38:44;100565.34;;;19.05;100.00
65880;BME280;52661;51.364;6.054;2023-07-16T00:41:12;100562.50;;;19.18;100.00
65880;BME280;52661;51.364;6.054;2023-07-16T00:43:37;100569.72;;;19.25;100.00
65880;BME280;52661;51.364;6.054;2023-07-16T00:46:03;100574.28;;;19.18;100.00
65880;BME280;52661;51.364;6.054;2023-07-16T00:48:28;100571.03;;;19.11;100.00
65880;BME280;52661;51.364;6.054;2023-07-16T00:50:54;100570.84;;;19.05;100.00
65880;BME280;52661;51.364;6.054;2023-07-16T00:53:21;100576.09;;;18.91;100.00
65880;BME280;52661;51.364;6.054;2023-07-16T00:55:46;100573.03;;;18.89;100.00
65880;BME280;52661;51.364;6.054;2023-07-16T00:58:12;100574.78;;;18.95;100.00
65880;BME280;52661;51.364;6.054;2023-07-16T01:00:39;100566.75;;;18.88;100.00
65880;BME280;52661;51.364;6.054;2023-07-16T01:03:07;100573.63;;;18.84;100.00
65880;BME280;52661;51.364;6.054;2023-07-16T01:08:20;100572.38;;;18.85;100.00
65880;BME280;52661;51.364;6.054;2023-07-16T01:10:47;100581.16;;;18.92;100.00
65880;BME280;52661;51.364;6.054;2023-07-16T01:13:14;100579.44;;;18.86;100.00
65880;BME280;52661;51.364;6.054;2023-07-16T01:15:40;100585.81;;;18.83;100.00
65880;BME280;52661;51.364;6.054;2023-07-16T01:18:05;100571.69;;;18.72;100.00
65880;BME280;52661;51.364;6.054;2023-07-16T01:20:31;100579.41;;;18.64;100.00
65880;BME280;52661;51.364;6.054;2023-07-16T01:26:17;100570.22;;;18.80;100.00
65880;BME280;52661;51.364;6.054;2023-07-16T01:28:53;100580.03;;;18.81;100.00
65880;BME280;52661;51.364;6.054;2023-07-16T01:31:23;100584.03;;;18.89;100.00
65880;BME280;52661;51.364;6.054;2023-07-16T01:33:51;100590.44;;;18.86;100.00
65880;BME280;52661;51.364;6.054;2023-07-16T01:36:18;100591.16;;;18.99;100.00
65880;BME280;52661;51.364;6.054;2023-07-16T01:38:44;100590.94;;;18.93;100.00
65880;BME280;52661;51.364;6.054;2023-07-16T01:41:10;100597.47;;;18.87;100.00
65880;BME280;52661;51.364;6.054;2023-07-16T01:43:36;100584.16;;;18.85;100.00
65880;BME280;52661;51.364;6.054;2023-07-16T01:46:01;100572.59;;;18.68;100.00
65880;BME280;52661;51.364;6.054;2023-07-16T01:48:35;100587.16;;;18.78;100.00
65880;BME280;52661;51.364;6.054;2023-07-16T01:51:02;100600.66;;;18.85;100.00
65880;BME280;52661;51.364;6.054;2023-07-16T01:53:28;100599.88;;;18.63;100.00
65880;BME280;52661;51.364;6.054;2023-07-16T01:55:54;100601.53;;;18.60;100.00
65880;BME280;52661;51.364;6.054;2023-07-16T01:58:19;100592.97;;;18.58;100.00
65880;BME280;52661;51.364;6.054;2023-07-16T02:00:44;100580.88;;;18.56;100.00
65880;BME280;52661;51.364;6.054;2023-07-16T02:03:10;100579.88;;;18.50;100.00
65880;BME280;52661;51.364;6.054;2023-07-16T02:05:36;100584.09;;;18.42;100.00
65880;BME280;52661;51.364;6.054;2023-07-16T02:08:01;100596.22;;;18.32;100.00
65880;BME280;52661;51.364;6.054;2023-07-16T02:10:27;100597.59;;;18.14;100.00
65880;BME280;52661;51.364;6.054;2023-07-16T02:12:52;100599.44;;;18.17;100.00
65880;BME280;52661;51.364;6.054;2023-07-16T02:15:18;100596.81;;;18.14;100.00
65880;BME280;52661;51.364;6.054;2023-07-16T02:17:44;100599.53;;;18.27;100.00
65880;BME280;52661;51.364;6.054;2023-07-16T02:20:10;100595.50;;;18.18;100.00
65880;BME280;52661;51.364;6.054;2023-07-16T02:22:36;100605.59;;;18.22;100.00
65880;BME280;52661;51.364;6.054;2023-07-16T02:25:02;100598.88;;;18.23;100.00
65880;BME280;52661;51.364;6.054;2023-07-16T02:27:27;100605.81;;;18.02;100.00
65880;BME280;52661;51.364;6.054;2023-07-16T02:29:53;100605.28;;;17.94;100.00
65880;BME280;52661;51.364;6.054;2023-07-16T02:32:18;100610.53;;;18.14;100.00
65880;BME280;52661;51.364;6.054;2023-07-16T02:34:44;100599.69;;;17.98;100.00
65880;BME280;52661;51.364;6.054;2023-07-16T02:37:09;100618.25;;;18.06;100.00
65880;BME280;52661;51.364;6.054;2023-07-16T02:39:35;100612.66;;;17.85;100.00
65880;BME280;52661;51.364;6.054;2023-07-16T02:42:00;100613.44;;;17.85;100.00
65880;BME280;52661;51.364;6.054;2023-07-16T02:44:25;100615.53;;;17.81;100.00
65880;BME280;52661;51.364;6.054;2023-07-16T02:46:51;100620.22;;;17.81;100.00
65880;BME280;52661;51.364;6.054;2023-07-16T02:49:16;100626.28;;;17.76;100.00
65880;BME280;52661;51.364;6.054;2023-07-16T02:51:41;100626.50;;;17.68;100.00
65880;BME280;52661;51.364;6.054;2023-07-16T02:54:07;100629.16;;;17.72;100.00
65880;BME280;52661;51.364;6.054;2023-07-16T02:56:34;100632.66;;;17.85;100.00
65880;BME280;52661;51.364;6.054;2023-07-16T02:58:59;100636.72;;;17.93;100.00
65880;BME280;52661;51.364;6.054;2023-07-16T03:01:25;100641.78;;;17.82;100.00
65880;BME280;52661;51.364;6.054;2023-07-16T03:03:50;100637.38;;;17.72;100.00
65880;BME280;52661;51.364;6.054;2023-07-16T03:06:15;100636.06;;;17.64;100.00
65880;BME280;52661;51.364;6.054;2023-07-16T03:08:41;100636.72;;;17.68;100.00
65880;BME280;52661;51.364;6.054;2023-07-16T03:11:06;100637.38;;;17.59;100.00
65880;BME280;52661;51.364;6.054;2023-07-16T03:13:32;100642.56;;;17.41;100.00
65880;BME280;52661;51.364;6.054;2023-07-16T03:15:57;100641.81;;;17.41;100.00
65880;BME280;52661;51.364;6.054;2023-07-16T03:18:30;100649.06;;;17.47;100.00
65880;BME280;52661;51.364;6.054;2023-07-16T03:20:57;100642.84;;;17.59;100.00
65880;BME280;52661;51.364;6.054;2023-07-16T03:23:23;100650.28;;;17.46;100.00
65880;BME280;52661;51.364;6.054;2023-07-16T03:25:48;100650.19;;;17.50;100.00
65880;BME280;52661;51.364;6.054;2023-07-16T03:28:14;100655.03;;;17.58;100.00
65880;BME280;52661;51.364;6.054;2023-07-16T03:30:39;100656.50;;;17.34;100.00
65880;BME280;52661;51.364;6.054;2023-07-16T03:33:05;100664.22;;;17.39;100.00
65880;BME280;52661;51.364;6.054;2023-07-16T03:35:30;100667.81;;;17.36;100.00
65880;BME280;52661;51.364;6.054;2023-07-16T03:37:56;100666.22;;;17.22;100.00
65880;BME280;52661;51.364;6.054;2023-07-16T03:40:25;100668.34;;;17.31;100.00
65880;BME280;52661;51.364;6.054;2023-07-16T03:42:51;100676.44;;;17.22;100.00
65880;BME280;52661;51.364;6.054;2023-07-16T03:45:17;100688.34;;;17.03;100.00
65880;BME280;52661;51.364;6.054;2023-07-16T03:47:42;100681.72;;;17.00;100.00
65880;BME280;52661;51.364;6.054;2023-07-16T03:50:08;100689.72;;;16.95;100.00
65880;BME280;52661;51.364;6.054;2023-07-16T03:52:34;100702.25;;;16.96;100.00
65880;BME280;52661;51.364;6.054;2023-07-16T03:55:00;100706.84;;;16.99;100.00
65880;BME280;52661;51.364;6.054;2023-07-16T03:57:27;100694.59;;;17.03;100.00
65880;BME280;52661;51.364;6.054;2023-07-16T03:59:53;100690.69;;;16.88;100.00
65880;BME280;52661;51.364;6.054;2023-07-16T04:02:18;100711.75;;;16.91;100.00
65880;BME280;52661;51.364;6.054;2023-07-16T04:04:43;100706.44;;;16.84;100.00
65880;BME280;52661;51.364;6.054;2023-07-16T04:07:09;100719.09;;;16.94;100.00
65880;BME280;52661;51.364;6.054;2023-07-16T04:09:37;100715.28;;;16.76;100.00
65880;BME280;52661;51.364;6.054;2023-07-16T04:12:03;100720.59;;;16.83;100.00
65880;BME280;52661;51.364;6.054;2023-07-16T04:14:29;100729.16;;;16.85;100.00
65880;BME280;52661;51.364;6.054;2023-07-16T04:16:54;100723.69;;;16.85;100.00
65880;BME280;52661;51.364;6.054;2023-07-16T04:19:20;100726.84;;;16.83;100.00
65880;BME280;52661;51.364;6.054;2023-07-16T04:21:45;100731.38;;;16.90;100.00
65880;BME280;52661;51.364;6.054;2023-07-16T04:24:10;100727.19;;;16.85;100.00
65880;BME280;52661;51.364;6.054;2023-07-16T04:26:36;100729.50;;;16.87;100.00
65880;BME280;52661;51.364;6.054;2023-07-16T04:29:01;100724.81;;;16.71;100.00
65880;BME280;52661;51.364;6.054;2023-07-16T04:31:26;100726.34;;;16.72;100.00
65880;BME280;52661;51.364;6.054;2023-07-16T04:33:52;100725.50;;;16.59;100.00
65880;BME280;52661;51.364;6.054;2023-07-16T04:36:17;100729.44;;;16.74;100.00
65880;BME280;52661;51.364;6.054;2023-07-16T04:38:43;100730.03;;;16.65;100.00
65880;BME280;52661;51.364;6.054;2023-07-16T04:41:08;100728.91;;;16.63;100.00
65880;BME280;52661;51.364;6.054;2023-07-16T04:43:33;100736.19;;;16.69;100.00
65880;BME280;52661;51.364;6.054;2023-07-16T04:45:59;100737.47;;;16.65;100.00
65880;BME280;52661;51.364;6.054;2023-07-16T04:48:25;100739.88;;;16.63;100.00
65880;BME280;52661;51.364;6.054;2023-07-16T04:50:51;100745.28;;;16.66;100.00
65880;BME280;52661;51.364;6.054;2023-07-16T04:53:17;100751.44;;;16.70;100.00
65880;BME280;52661;51.364;6.054;2023-07-16T04:55:44;100753.13;;;16.64;100.00
65880;BME280;52661;51.364;6.054;2023-07-16T04:58:11;100753.06;;;16.68;100.00
65880;BME280;52661;51.364;6.054;2023-07-16T05:00:37;100752.47;;;16.77;100.00
65880;BME280;52661;51.364;6.054;2023-07-16T05:03:02;100752.69;;;16.82;100.00
65880;BME280;52661;51.364;6.054;2023-07-16T05:05:28;100762.66;;;16.92;100.00
65880;BME280;52661;51.364;6.054;2023-07-16T05:07:53;100765.47;;;16.89;100.00
65880;BME280;52661;51.364;6.054;2023-07-16T05:10:19;100772.41;;;16.77;100.00
65880;BME280;52661;51.364;6.054;2023-07-16T05:12:44;100772.41;;;16.77;100.00
65880;BME280;52661;51.364;6.054;2023-07-16T05:15:09;100769.91;;;16.83;100.00
65880;BME280;52661;51.364;6.054;2023-07-16T05:17:35;100774.13;;;16.87;100.00
65880;BME280;52661;51.364;6.054;2023-07-16T05:20:00;100769.66;;;16.93;100.00
65880;BME280;52661;51.364;6.054;2023-07-16T05:22:26;100785.00;;;16.91;100.00
65880;BME280;52661;51.364;6.054;2023-07-16T05:24:51;100784.13;;;17.10;100.00
65880;BME280;52661;51.364;6.054;2023-07-16T05:27:16;100790.41;;;16.94;100.00
65880;BME280;52661;51.364;6.054;2023-07-16T05:29:42;100789.34;;;17.04;100.00
65880;BME280;52661;51.364;6.054;2023-07-16T05:32:07;100796.19;;;17.12;100.00
65880;BME280;52661;51.364;6.054;2023-07-16T05:34:33;100796.06;;;17.03;100.00
65880;BME280;52661;51.364;6.054;2023-07-16T05:36:58;100804.69;;;17.02;100.00
65880;BME280;52661;51.364;6.054;2023-07-16T05:39:24;100807.94;;;17.13;100.00
65880;BME280;52661;51.364;6.054;2023-07-16T05:41:49;100807.94;;;16.97;100.00
65880;BME280;52661;51.364;6.054;2023-07-16T05:44:15;100811.56;;;17.10;100.00
65880;BME280;52661;51.364;6.054;2023-07-16T05:46:40;100810.19;;;17.18;100.00
65880;BME280;52661;51.364;6.054;2023-07-16T05:49:06;100817.38;;;17.12;100.00
65880;BME280;52661;51.364;6.054;2023-07-16T05:51:31;100819.16;;;17.18;100.00
65880;BME280;52661;51.364;6.054;2023-07-16T05:53:57;100815.91;;;17.23;100.00
65880;BME280;52661;51.364;6.054;2023-07-16T05:56:22;100818.75;;;17.20;100.00
65880;BME280;52661;51.364;6.054;2023-07-16T05:58:48;100826.56;;;17.21;100.00
65880;BME280;52661;51.364;6.054;2023-07-16T06:01:13;100819.25;;;17.31;100.00
65880;BME280;52661;51.364;6.054;2023-07-16T06:03:38;100817.78;;;17.27;100.00
65880;BME280;52661;51.364;6.054;2023-07-16T06:06:04;100820.09;;;17.28;100.00
65880;BME280;52661;51.364;6.054;2023-07-16T06:08:29;100820.94;;;17.41;100.00
65880;BME280;52661;51.364;6.054;2023-07-16T06:10:55;100819.56;;;17.33;100.00
65880;BME280;52661;51.364;6.054;2023-07-16T06:13:20;100828.84;;;17.39;100.00
65880;BME280;52661;51.364;6.054;2023-07-16T06:15:47;100832.06;;;17.50;100.00
65880;BME280;52661;51.364;6.054;2023-07-16T06:18:12;100837.47;;;17.38;100.00
65880;BME280;52661;51.364;6.054;2023-07-16T06:20:38;100838.44;;;17.31;100.00
65880;BME280;52661;51.364;6.054;2023-07-16T06:23:04;100837.19;;;17.48;100.00
65880;BME280;52661;51.364;6.054;2023-07-16T06:25:29;100842.88;;;17.57;100.00
65880;BME280;52661;51.364;6.054;2023-07-16T06:27:55;100845.84;;;17.63;100.00
65880;BME280;52661;51.364;6.054;2023-07-16T06:30:20;100853.31;;;17.62;100.00
65880;BME280;52661;51.364;6.054;2023-07-16T06:32:46;100851.19;;;17.54;100.00
65880;BME280;52661;51.364;6.054;2023-07-16T06:35:11;100855.38;;;17.58;100.00
65880;BME280;52661;51.364;6.054;2023-07-16T06:37:36;100854.56;;;17.74;100.00
65880;BME280;52661;51.364;6.054;2023-07-16T06:40:02;100858.97;;;17.72;100.00
65880;BME280;52661;51.364;6.054;2023-07-16T06:42:28;100868.31;;;17.74;100.00
65880;BME280;52661;51.364;6.054;2023-07-16T06:44:54;100865.47;;;17.78;100.00
65880;BME280;52661;51.364;6.054;2023-07-16T06:47:19;100850.56;;;17.62;100.00
65880;BME280;52661;51.364;6.054;2023-07-16T06:49:45;100864.97;;;17.66;100.00
65880;BME280;52661;51.364;6.054;2023-07-16T06:52:21;100868.31;;;17.74;100.00
65880;BME280;52661;51.364;6.054;2023-07-16T06:54:46;100861.44;;;17.95;100.00
65880;BME280;52661;51.364;6.054;2023-07-16T06:57:12;100873.75;;;17.90;100.00
65880;BME280;52661;51.364;6.054;2023-07-16T06:59:37;100870.03;;;17.97;100.00
65880;BME280;52661;51.364;6.054;2023-07-16T07:02:03;100882.66;;;17.94;100.00
65880;BME280;52661;51.364;6.054;2023-07-16T07:04:28;100885.53;;;18.03;100.00
65880;BME280;52661;51.364;6.054;2023-07-16T07:06:53;100879.06;;;18.10;100.00
65880;BME280;52661;51.364;6.054;2023-07-16T07:09:19;100893.63;;;18.23;100.00
65880;BME280;52661;51.364;6.054;2023-07-16T07:11:44;100883.91;;;18.06;100.00
65880;BME280;52661;51.364;6.054;2023-07-16T07:14:09;100888.72;;;18.02;100.00
65880;BME280;52661;51.364;6.054;2023-07-16T07:16:35;100890.53;;;18.08;100.00
65880;BME280;52661;51.364;6.054;2023-07-16T07:19:00;100892.59;;;18.17;100.00
65880;BME280;52661;51.364;6.054;2023-07-16T07:21:25;100893.81;;;18.16;100.00
65880;BME280;52661;51.364;6.054;2023-07-16T07:23:51;100885.78;;;18.09;100.00
65880;BME280;52661;51.364;6.054;2023-07-16T07:26:16;100897.09;;;18.11;100.00
65880;BME280;52661;51.364;6.054;2023-07-16T07:28:42;100896.00;;;18.08;100.00
65880;BME280;52661;51.364;6.054;2023-07-16T07:31:07;100888.78;;;18.27;100.00
65880;BME280;52661;51.364;6.054;2023-07-16T07:33:32;100902.00;;;18.32;100.00
65880;BME280;52661;51.364;6.054;2023-07-16T07:35:58;100886.19;;;18.36;100.00
65880;BME280;52661;51.364;6.054;2023-07-16T07:38:23;100899.50;;;18.50;100.00
65880;BME280;52661;51.364;6.054;2023-07-16T07:40:48;100898.13;;;18.58;100.00
65880;BME280;52661;51.364;6.054;2023-07-16T07:43:14;100881.56;;;18.46;100.00
65880;BME280;52661;51.364;6.054;2023-07-16T07:45:39;100883.25;;;18.56;100.00
65880;BME280;52661;51.364;6.054;2023-07-16T07:48:04;100887.78;;;18.62;100.00
65880;BME280;52661;51.364;6.054;2023-07-16T07:50:30;100887.44;;;18.73;100.00
65880;BME280;52661;51.364;6.054;2023-07-16T07:52:55;100885.78;;;18.63;100.00
65880;BME280;52661;51.364;6.054;2023-07-16T07:55:21;100896.47;;;18.61;100.00
65880;BME280;52661;51.364;6.054;2023-07-16T07:57:46;100891.63;;;18.78;100.00
65880;BME280;52661;51.364;6.054;2023-07-16T08:00:12;100889.63;;;18.78;100.00
65880;BME280;52661;51.364;6.054;2023-07-16T08:02:38;100892.94;;;18.86;100.00
65880;BME280;52661;51.364;6.054;2023-07-16T08:05:03;100893.59;;;18.90;100.00
65880;BME280;52661;51.364;6.054;2023-07-16T08:07:29;100895.69;;;18.98;100.00
65880;BME280;52661;51.364;6.054;2023-07-16T08:09:55;100895.00;;;19.07;100.00
65880;BME280;52661;51.364;6.054;2023-07-16T08:12:20;100902.94;;;18.92;100.00
65880;BME280;52661;51.364;6.054;2023-07-16T08:14:45;100901.53;;;18.88;100.00
65880;BME280;52661;51.364;6.054;2023-07-16T08:17:11;100904.50;;;18.93;100.00
65880;BME280;52661;51.364;6.054;2023-07-16T08:19:37;100913.72;;;18.99;100.00
65880;BME280;52661;51.364;6.054;2023-07-16T08:22:02;100904.94;;;19.04;100.00
65880;BME280;52661;51.364;6.054;2023-07-16T08:24:28;100904.03;;;19.07;100.00
65880;BME280;52661;51.364;6.054;2023-07-16T08:26:53;100917.56;;;19.27;100.00
65880;BME280;52661;51.364;6.054;2023-07-16T08:29:19;100920.50;;;19.33;100.00
65880;BME280;52661;51.364;6.054;2023-07-16T08:31:44;100912.03;;;19.52;100.00
65880;BME280;52661;51.364;6.054;2023-07-16T08:34:09;100924.00;;;19.58;100.00
65880;BME280;52661;51.364;6.054;2023-07-16T08:36:36;100923.03;;;19.52;100.00
65880;BME280;52661;51.364;6.054;2023-07-16T08:39:02;100916.53;;;19.59;100.00
65880;BME280;52661;51.364;6.054;2023-07-16T08:41:28;100927.84;;;19.61;99.63
65880;BME280;52661;51.364;6.054;2023-07-16T08:43:54;100921.81;;;19.53;100.00
65880;BME280;52661;51.364;6.054;2023-07-16T08:46:20;100931.00;;;19.72;100.00
65880;BME280;52661;51.364;6.054;2023-07-16T08:48:45;100927.22;;;19.57;99.67
65880;BME280;52661;51.364;6.054;2023-07-16T08:51:14;100930.59;;;19.61;100.00
65880;BME280;52661;51.364;6.054;2023-07-16T08:53:39;100934.91;;;19.62;100.00
65880;BME280;52661;51.364;6.054;2023-07-16T08:56:05;100931.25;;;19.65;99.25
65880;BME280;52661;51.364;6.054;2023-07-16T08:58:31;100928.09;;;19.54;100.00
65880;BME280;52661;51.364;6.054;2023-07-16T09:00:56;100927.00;;;19.51;100.00
65880;BME280;52661;51.364;6.054;2023-07-16T09:03:23;100928.19;;;19.63;96.97
65880;BME280;52661;51.364;6.054;2023-07-16T09:05:48;100928.59;;;19.74;98.50
65880;BME280;52661;51.364;6.054;2023-07-16T09:08:14;100933.34;;;19.74;100.00
65880;BME280;52661;51.364;6.054;2023-07-16T09:10:43;100928.16;;;19.97;100.00
65880;BME280;52661;51.364;6.054;2023-07-16T09:13:09;100930.22;;;20.06;98.57
65880;BME280;52661;51.364;6.054;2023-07-16T09:15:35;100940.75;;;20.20;98.41
65880;BME280;52661;51.364;6.054;2023-07-16T09:18:01;100928.28;;;20.28;96.78
65880;BME280;52661;51.364;6.054;2023-07-16T09:20:27;100926.69;;;20.05;95.41
65880;BME280;52661;51.364;6.054;2023-07-16T09:22:58;100949.22;;;20.04;97.23
65880;BME280;52661;51.364;6.054;2023-07-16T09:25:30;100929.03;;;20.07;96.29
65880;BME280;52661;51.364;6.054;2023-07-16T09:27:58;100933.03;;;19.93;94.67
65880;BME280;52661;51.364;6.054;2023-07-16T09:30:31;100948.25;;;20.20;93.04
65880;BME280;52661;51.364;6.054;2023-07-16T09:32:57;100938.53;;;20.28;94.26
65880;BME280;52661;51.364;6.054;2023-07-16T09:35:23;100944.56;;;20.35;94.24
65880;BME280;52661;51.364;6.054;2023-07-16T09:37:48;100941.47;;;20.33;94.10
65880;BME280;52661;51.364;6.054;2023-07-16T09:40:14;100952.69;;;20.39;91.94
65880;BME280;52661;51.364;6.054;2023-07-16T09:42:41;100945.69;;;20.25;91.73
65880;BME280;52661;51.364;6.054;2023-07-16T09:45:17;100955.59;;;20.35;91.90
65880;BME280;52661;51.364;6.054;2023-07-16T09:47:42;100956.63;;;20.29;93.32
65880;BME280;52661;51.364;6.054;2023-07-16T09:50:09;100950.84;;;20.01;91.38
65880;BME280;52661;51.364;6.054;2023-07-16T09:52:34;100950.72;;;20.05;93.22
65880;BME280;52661;51.364;6.054;2023-07-16T09:55:02;100966.81;;;20.06;93.57
65880;BME280;52661;51.364;6.054;2023-07-16T09:57:32;100963.03;;;20.13;93.92
65880;BME280;52661;51.364;6.054;2023-07-16T10:00:00;100947.66;;;20.25;93.23
65880;BME280;52661;51.364;6.054;2023-07-16T10:02:33;100953.72;;;20.32;92.13
65880;BME280;52661;51.364;6.054;2023-07-16T10:04:58;100962.66;;;20.67;89.79
65880;BME280;52661;51.364;6.054;2023-07-16T10:07:25;100963.13;;;20.96;89.36
65880;BME280;52661;51.364;6.054;2023-07-16T10:12:19;100963.81;;;20.79;86.71
65880;BME280;52661;51.364;6.054;2023-07-16T10:14:47;100982.63;;;20.71;87.48
65880;BME280;52661;51.364;6.054;2023-07-16T10:17:17;100981.19;;;20.67;87.66
65880;BME280;52661;51.364;6.054;2023-07-16T10:20:27;100977.25;;;20.77;91.26
65880;BME280;52661;51.364;6.054;2023-07-16T10:22:53;100983.38;;;20.72;88.74
65880;BME280;52661;51.364;6.054;2023-07-16T10:27:45;100984.88;;;20.63;90.41
65880;BME280;52661;51.364;6.054;2023-07-16T10:30:11;100978.84;;;20.56;89.63
65880;BME280;52661;51.364;6.054;2023-07-16T10:32:37;100984.19;;;20.50;89.28
65880;BME280;52661;51.364;6.054;2023-07-16T10:35:05;100990.34;;;20.54;88.70
65880;BME280;52661;51.364;6.054;2023-07-16T10:37:32;100996.84;;;20.70;88.77
65880;BME280;52661;51.364;6.054;2023-07-16T10:39:58;101005.25;;;20.66;87.86
65880;BME280;52661;51.364;6.054;2023-07-16T10:42:25;100997.19;;;20.72;88.22
65880;BME280;52661;51.364;6.054;2023-07-16T10:44:52;100994.59;;;20.77;87.95
65880;BME280;52661;51.364;6.054;2023-07-16T10:47:19;100988.31;;;20.77;87.82
65880;BME280;52661;51.364;6.054;2023-07-16T10:49:48;100997.75;;;20.67;87.69
65880;BME280;52661;51.364;6.054;2023-07-16T10:52:13;101001.66;;;20.78;90.08
65880;BME280;52661;51.364;6.054;2023-07-16T10:54:40;101005.22;;;20.88;88.67
65880;BME280;52661;51.364;6.054;2023-07-16T10:57:06;100996.16;;;20.87;87.42
65880;BME280;52661;51.364;6.054;2023-07-16T10:59:31;101004.44;;;20.87;88.05
65880;BME280;52661;51.364;6.054;2023-07-16T11:01:57;100998.09;;;20.99;91.58
65880;BME280;52661;51.364;6.054;2023-07-16T11:04:22;101008.03;;;20.97;86.01
65880;BME280;52661;51.364;6.054;2023-07-16T11:06:50;101014.22;;;21.10;86.74
65880;BME280;52661;51.364;6.054;2023-07-16T11:09:15;101015.09;;;21.20;84.88
65880;BME280;52661;51.364;6.054;2023-07-16T11:11:40;101008.31;;;21.21;84.20
65880;BME280;52661;51.364;6.054;2023-07-16T11:14:07;101017.59;;;21.05;84.80
65880;BME280;52661;51.364;6.054;2023-07-16T11:16:37;101026.19;;;21.07;86.01
65880;BME280;52661;51.364;6.054;2023-07-16T11:19:06;101023.63;;;21.13;85.25
65880;BME280;52661;51.364;6.054;2023-07-16T11:21:36;101013.41;;;21.22;86.67
65880;BME280;52661;51.364;6.054;2023-07-16T11:24:12;101015.00;;;21.41;84.58
65880;BME280;52661;51.364;6.054;2023-07-16T11:26:38;101028.06;;;21.50;85.41
65880;BME280;52661;51.364;6.054;2023-07-16T11:29:14;101020.50;;;21.99;84.50
65880;BME280;52661;51.364;6.054;2023-07-16T11:31:40;101025.75;;;21.97;83.16
65880;BME280;52661;51.364;6.054;2023-07-16T11:34:06;101026.44;;;21.89;81.03
65880;BME280;52661;51.364;6.054;2023-07-16T11:36:33;101026.44;;;21.80;83.00
65880;BME280;52661;51.364;6.054;2023-07-16T11:38:58;101024.47;;;21.80;81.43
65880;BME280;52661;51.364;6.054;2023-07-16T11:41:24;101022.00;;;21.82;81.56
65880;BME280;52661;51.364;6.054;2023-07-16T11:43:50;101019.41;;;21.88;82.57
65880;BME280;52661;51.364;6.054;2023-07-16T11:46:16;101025.44;;;22.04;83.80
65880;BME280;52661;51.364;6.054;2023-07-16T11:48:42;101031.97;;;21.89;80.90
65880;BME280;52661;51.364;6.054;2023-07-16T11:51:08;101035.59;;;22.17;81.57
65880;BME280;52661;51.364;6.054;2023-07-16T11:53:33;101029.28;;;22.16;81.05
65880;BME280;52661;51.364;6.054;2023-07-16T11:55:59;101040.03;;;22.05;80.76
65880;BME280;52661;51.364;6.054;2023-07-16T11:58:24;101043.50;;;21.87;76.87
65880;BME280;52661;51.364;6.054;2023-07-16T12:00:50;101044.94;;;21.92;80.41
65880;BME280;52661;51.364;6.054;2023-07-16T12:03:16;101048.16;;;22.08;77.65
65880;BME280;52661;51.364;6.054;2023-07-16T12:05:42;101038.50;;;22.40;79.57
65880;BME280;52661;51.364;6.054;2023-07-16T12:08:07;101047.13;;;22.24;77.26
65880;BME280;52661;51.364;6.054;2023-07-16T12:10:39;101051.25;;;22.01;76.08
65880;BME280;52661;51.364;6.054;2023-07-16T12:13:05;101054.44;;;21.91;78.20
65880;BME280;52661;51.364;6.054;2023-07-16T12:15:30;101039.19;;;21.77;77.52
65880;BME280;52661;51.364;6.054;2023-07-16T12:17:56;101041.25;;;21.95;78.35
65880;BME280;52661;51.364;6.054;2023-07-16T12:20:21;101044.31;;;21.97;77.73
65880;BME280;52661;51.364;6.054;2023-07-16T12:22:46;101045.72;;;22.01;77.96
65880;BME280;52661;51.364;6.054;2023-07-16T12:25:12;101046.34;;;22.05;75.51
65880;BME280;52661;51.364;6.054;2023-07-16T12:27:37;101052.47;;;22.10;75.05
65880;BME280;52661;51.364;6.054;2023-07-16T12:30:03;101033.44;;;22.12;76.36
65880;BME280;52661;51.364;6.054;2023-07-16T12:32:28;101046.16;;;22.54;75.08
65880;BME280;52661;51.364;6.054;2023-07-16T12:34:54;101048.81;;;22.31;75.24
65880;BME280;52661;51.364;6.054;2023-07-16T12:37:20;101049.72;;;22.19;75.06
65880;BME280;52661;51.364;6.054;2023-07-16T12:39:45;101048.19;;;22.45;75.45
65880;BME280;52661;51.364;6.054;2023-07-16T12:42:11;101047.09;;;22.51;76.47
65880;BME280;52661;51.364;6.054;2023-07-16T12:44:36;101053.25;;;22.37;74.84
65880;BME280;52661;51.364;6.054;2023-07-16T12:47:01;101064.16;;;22.77;76.68
65880;BME280;52661;51.364;6.054;2023-07-16T12:49:27;101054.19;;;22.71;76.66